sensor_id;sensor_type;location;lat;lon;timestamp;temperature;humidity
16402;DHT22;8310;44.626;11.176;2023-08-06T00:02:16;20.00;56.90
16402;DHT22;8310;44.626;11.176;2023-08-06T00:04:44;19.90;56.90
16402;DHT22;8310;44.626;11.176;2023-08-06T00:07:13;19.90;57.60
16402;DHT22;8310;44.626;11.176;2023-08-06T00:09:40;19.80;56.90
16402;DHT22;8310;44.626;11.176;2023-08-06T00:12:07;19.80;56.90
16402;DHT22;8310;44.626;11.176;2023-08-06T00:14:35;19.80;56.90
16402;DHT22;8310;44.626;11.176;2023-08-06T00:17:02;19.70;56.80
16402;DHT22;8310;44.626;11.176;2023-08-06T00:19:30;19.70;56.90
16402;DHT22;8310;44.626;11.176;2023-08-06T00:21:58;19.60;56.90
16402;DHT22;8310;44.626;11.176;2023-08-06T00:24:26;19.60;56.90
16402;DHT22;8310;44.626;11.176;2023-08-06T00:26:54;19.60;57.00
16402;DHT22;8310;44.626;11.176;2023-08-06T00:29:21;19.60;57.00
16402;DHT22;8310;44.626;11.176;2023-08-06T00:31:48;19.50;57.00
16402;DHT22;8310;44.626;11.176;2023-08-06T00:34:15;19.50;57.00
16402;DHT22;8310;44.626;11.176;2023-08-06T00:36:43;19.50;57.00
16402;DHT22;8310;44.626;11.176;2023-08-06T00:39:10;19.50;57.00
16402;DHT22;8310;44.626;11.176;2023-08-06T00:41:39;19.50;57.00
16402;DHT22;8310;44.626;11.176;2023-08-06T00:44:07;19.40;57.00
16402;DHT22;8310;44.626;11.176;2023-08-06T00:46:34;19.40;57.00
16402;DHT22;8310;44.626;11.176;2023-08-06T00:49:01;19.40;57.10
16402;DHT22;8310;44.626;11.176;2023-08-06T00:51:29;19.40;57.50
16402;DHT22;8310;44.626;11.176;2023-08-06T00:53:56;19.40;57.20
16402;DHT22;8310;44.626;11.176;2023-08-06T00:56:24;19.30;57.20
16402;DHT22;8310;44.626;11.176;2023-08-06T00:58:53;19.30;57.20
16402;DHT22;8310;44.626;11.176;2023-08-06T01:01:20;19.30;57.20
16402;DHT22;8310;44.626;11.176;2023-08-06T01:03:48;19.30;57.30
16402;DHT22;8310;44.626;11.176;2023-08-06T01:06:16;19.30;57.30
16402;DHT22;8310;44.626;11.176;2023-08-06T01:08:48;19.30;57.30
16402;DHT22;8310;44.626;11.176;2023-08-06T01:11:22;19.30;57.30
16402;DHT22;8310;44.626;11.176;2023-08-06T01:13:59;19.30;57.30
16402;DHT22;8310;44.626;11.176;2023-08-06T01:16:29;19.30;57.30
16402;DHT22;8310;44.626;11.176;2023-08-06T01:18:58;19.30;57.30
16402;DHT22;8310;44.626;11.176;2023-08-06T01:21:27;19.30;57.40
16402;DHT22;8310;44.626;11.176;2023-08-06T01:23:55;19.30;57.50
16402;DHT22;8310;44.626;11.176;2023-08-06T01:26:24;19.30;57.50
16402;DHT22;8310;44.626;11.176;2023-08-06T01:28:56;19.30;57.50
16402;DHT22;8310;44.626;11.176;2023-08-06T01:31:24;19.30;57.50
16402;DHT22;8310;44.626;11.176;2023-08-06T01:33:53;19.30;57.50
16402;DHT22;8310;44.626;11.176;2023-08-06T01:36:21;19.30;57.40
16402;DHT22;8310;44.626;11.176;2023-08-06T01:38:50;19.30;57.30
16402;DHT22;8310;44.626;11.176;2023-08-06T01:41:18;19.30;57.30
16402;DHT22;8310;44.626;11.176;2023-08-06T01:43:45;19.30;57.30
16402;DHT22;8310;44.626;11.176;2023-08-06T01:46:12;19.30;57.40
16402;DHT22;8310;44.626;11.176;2023-08-06T01:48:40;19.30;57.40
16402;DHT22;8310;44.626;11.176;2023-08-06T01:51:07;19.30;57.40
16402;DHT22;8310;44.626;11.176;2023-08-06T01:53:34;19.20;57.40
16402;DHT22;8310;44.626;11.176;2023-08-06T01:56:04;19.20;57.40
16402;DHT22;8310;44.626;11.176;2023-08-06T01:58:32;19.20;57.50
16402;DHT22;8310;44.626;11.176;2023-08-06T02:00:59;19.20;57.40
16402;DHT22;8310;44.626;11.176;2023-08-06T02:03:26;19.20;57.40
16402;DHT22;8310;44.626;11.176;2023-08-06T02:05:53;19.20;57.40
16402;DHT22;8310;44.626;11.176;2023-08-06T02:08:21;19.10;57.40
16402;DHT22;8310;44.626;11.176;2023-08-06T02:10:48;19.10;57.40
16402;DHT22;8310;44.626;11.176;2023-08-06T02:13:17;19.10;57.40
16402;DHT22;8310;44.626;11.176;2023-08-06T02:15:44;19.10;57.50
16402;DHT22;8310;44.626;11.176;2023-08-06T02:18:12;19.10;57.50
16402;DHT22;8310;44.626;11.176;2023-08-06T02:20:40;19.10;57.50
16402;DHT22;8310;44.626;11.176;2023-08-06T02:23:07;19.10;57.50
16402;DHT22;8310;44.626;11.176;2023-08-06T02:25:34;19.10;57.40
16402;DHT22;8310;44.626;11.176;2023-08-06T02:28:02;19.00;57.40
16402;DHT22;8310;44.626;11.176;2023-08-06T02:30:30;19.00;57.40
16402;DHT22;8310;44.626;11.176;2023-08-06T02:32:58;19.00;57.50
16402;DHT22;8310;44.626;11.176;2023-08-06T02:35:25;19.00;57.50
16402;DHT22;8310;44.626;11.176;2023-08-06T02:37:52;19.00;57.50
16402;DHT22;8310;44.626;11.176;2023-08-06T02:40:19;19.00;57.50
16402;DHT22;8310;44.626;11.176;2023-08-06T02:42:47;19.00;57.50
16402;DHT22;8310;44.626;11.176;2023-08-06T02:45:14;19.00;57.50
16402;DHT22;8310;44.626;11.176;2023-08-06T02:47:43;19.00;57.60
16402;DHT22;8310;44.626;11.176;2023-08-06T02:50:09;19.00;57.70
16402;DHT22;8310;44.626;11.176;2023-08-06T02:52:36;19.00;57.70
16402;DHT22;8310;44.626;11.176;2023-08-06T02:55:05;19.00;57.80
16402;DHT22;8310;44.626;11.176;2023-08-06T02:57:32;19.00;57.80
16402;DHT22;8310;44.626;11.176;2023-08-06T03:00:00;19.00;57.80
16402;DHT22;8310;44.626;11.176;2023-08-06T03:02:29;19.00;57.80
16402;DHT22;8310;44.626;11.176;2023-08-06T03:04:59;19.10;57.80
16402;DHT22;8310;44.626;11.176;2023-08-06T03:07:27;19.10;57.80
16402;DHT22;8310;44.626;11.176;2023-08-06T03:09:54;19.10;57.80
16402;DHT22;8310;44.626;11.176;2023-08-06T03:12:21;19.10;57.80
16402;DHT22;8310;44.626;11.176;2023-08-06T03:14:49;19.00;57.70
16402;DHT22;8310;44.626;11.176;2023-08-06T03:17:16;19.00;57.80
16402;DHT22;8310;44.626;11.176;2023-08-06T03:19:44;19.00;57.80
16402;DHT22;8310;44.626;11.176;2023-08-06T03:22:13;19.00;57.90
16402;DHT22;8310;44.626;11.176;2023-08-06T03:24:40;19.00;57.90
16402;DHT22;8310;44.626;11.176;2023-08-06T03:27:08;19.10;57.90
16402;DHT22;8310;44.626;11.176;2023-08-06T03:29:37;19.10;57.90
16402;DHT22;8310;44.626;11.176;2023-08-06T03:32:05;19.10;57.90
16402;DHT22;8310;44.626;11.176;2023-08-06T03:34:32;19.10;57.90
16402;DHT22;8310;44.626;11.176;2023-08-06T03:36:59;19.10;58.00
16402;DHT22;8310;44.626;11.176;2023-08-06T03:39:28;19.10;57.90
16402;DHT22;8310;44.626;11.176;2023-08-06T03:41:55;19.00;57.90
16402;DHT22;8310;44.626;11.176;2023-08-06T03:44:23;19.10;58.00
16402;DHT22;8310;44.626;11.176;2023-08-06T03:46:50;19.10;58.00
16402;DHT22;8310;44.626;11.176;2023-08-06T03:49:17;19.10;58.00
16402;DHT22;8310;44.626;11.176;2023-08-06T03:51:45;19.10;58.00
16402;DHT22;8310;44.626;11.176;2023-08-06T03:54:12;19.00;58.00
16402;DHT22;8310;44.626;11.176;2023-08-06T03:56:40;19.00;58.00
16402;DHT22;8310;44.626;11.176;2023-08-06T03:59:08;19.00;58.00
16402;DHT22;8310;44.626;11.176;2023-08-06T04:01:35;19.00;58.00
16402;DHT22;8310;44.626;11.176;2023-08-06T04:04:03;19.00;58.00
16402;DHT22;8310;44.626;11.176;2023-08-06T04:06:30;19.00;58.00
16402;DHT22;8310;44.626;11.176;2023-08-06T04:08:58;19.00;58.00
16402;DHT22;8310;44.626;11.176;2023-08-06T04:11:24;19.00;58.10
16402;DHT22;8310;44.626;11.176;2023-08-06T04:13:53;19.00;58.10
16402;DHT22;8310;44.626;11.176;2023-08-06T04:16:20;19.00;58.20
16402;DHT22;8310;44.626;11.176;2023-08-06T04:18:48;19.00;58.20
16402;DHT22;8310;44.626;11.176;2023-08-06T04:21:15;19.00;58.20
16402;DHT22;8310;44.626;11.176;2023-08-06T04:23:43;19.00;58.20
16402;DHT22;8310;44.626;11.176;2023-08-06T04:26:16;19.00;58.10
16402;DHT22;8310;44.626;11.176;2023-08-06T04:28:43;19.00;58.00
16402;DHT22;8310;44.626;11.176;2023-08-06T04:31:12;18.90;57.90
16402;DHT22;8310;44.626;11.176;2023-08-06T04:33:40;18.80;57.90
16402;DHT22;8310;44.626;11.176;2023-08-06T04:36:07;18.80;57.90
16402;DHT22;8310;44.626;11.176;2023-08-06T04:38:34;18.70;57.90
16402;DHT22;8310;44.626;11.176;2023-08-06T04:41:02;18.60;57.90
16402;DHT22;8310;44.626;11.176;2023-08-06T04:43:29;18.60;58.00
16402;DHT22;8310;44.626;11.176;2023-08-06T04:45:56;18.60;58.60
16402;DHT22;8310;44.626;11.176;2023-08-06T04:48:25;18.60;58.10
16402;DHT22;8310;44.626;11.176;2023-08-06T04:50:52;18.60;58.30
16402;DHT22;8310;44.626;11.176;2023-08-06T04:53:20;18.70;58.40
16402;DHT22;8310;44.626;11.176;2023-08-06T04:55:48;18.70;58.60
16402;DHT22;8310;44.626;11.176;2023-08-06T04:58:16;18.90;58.80
16402;DHT22;8310;44.626;11.176;2023-08-06T05:00:43;19.00;59.00
16402;DHT22;8310;44.626;11.176;2023-08-06T05:03:10;19.10;59.20
16402;DHT22;8310;44.626;11.176;2023-08-06T05:05:41;19.20;59.30
16402;DHT22;8310;44.626;11.176;2023-08-06T05:08:13;19.40;59.50
16402;DHT22;8310;44.626;11.176;2023-08-06T05:10:42;19.50;59.40
16402;DHT22;8310;44.626;11.176;2023-08-06T05:13:09;19.60;59.40
16402;DHT22;8310;44.626;11.176;2023-08-06T05:15:36;19.60;59.40
16402;DHT22;8310;44.626;11.176;2023-08-06T05:18:05;19.70;59.60
16402;DHT22;8310;44.626;11.176;2023-08-06T05:20:35;19.80;59.80
16402;DHT22;8310;44.626;11.176;2023-08-06T05:23:04;19.90;60.40
16402;DHT22;8310;44.626;11.176;2023-08-06T05:25:33;20.00;59.60
16402;DHT22;8310;44.626;11.176;2023-08-06T05:28:01;20.00;59.60
16402;DHT22;8310;44.626;11.176;2023-08-06T05:30:28;20.10;60.00
16402;DHT22;8310;44.626;11.176;2023-08-06T05:32:56;20.20;60.20
16402;DHT22;8310;44.626;11.176;2023-08-06T05:35:23;20.40;60.70
16402;DHT22;8310;44.626;11.176;2023-08-06T05:37:50;20.50;61.10
16402;DHT22;8310;44.626;11.176;2023-08-06T05:40:19;20.80;61.50
16402;DHT22;8310;44.626;11.176;2023-08-06T05:42:46;20.90;61.20
16402;DHT22;8310;44.626;11.176;2023-08-06T05:45:14;21.00;60.70
16402;DHT22;8310;44.626;11.176;2023-08-06T05:47:41;21.10;60.60
16402;DHT22;8310;44.626;11.176;2023-08-06T05:50:08;21.10;60.30
16402;DHT22;8310;44.626;11.176;2023-08-06T05:52:36;21.10;60.00
16402;DHT22;8310;44.626;11.176;2023-08-06T05:55:03;21.10;59.90
16402;DHT22;8310;44.626;11.176;2023-08-06T05:57:32;21.20;60.00
16402;DHT22;8310;44.626;11.176;2023-08-06T06:00:00;21.20;59.90
16402;DHT22;8310;44.626;11.176;2023-08-06T06:02:27;21.20;59.80
16402;DHT22;8310;44.626;11.176;2023-08-06T06:04:54;21.20;59.70
16402;DHT22;8310;44.626;11.176;2023-08-06T06:07:22;21.20;59.70
16402;DHT22;8310;44.626;11.176;2023-08-06T06:09:48;21.30;59.90
16402;DHT22;8310;44.626;11.176;2023-08-06T06:12:16;21.30;59.90
16402;DHT22;8310;44.626;11.176;2023-08-06T06:14:45;21.40;59.90
16402;DHT22;8310;44.626;11.176;2023-08-06T06:17:12;21.40;59.80
16402;DHT22;8310;44.626;11.176;2023-08-06T06:19:40;21.50;60.00
16402;DHT22;8310;44.626;11.176;2023-08-06T06:22:07;21.60;60.30
16402;DHT22;8310;44.626;11.176;2023-08-06T06:24:34;21.60;60.40
16402;DHT22;8310;44.626;11.176;2023-08-06T06:27:01;21.70;60.40
16402;DHT22;8310;44.626;11.176;2023-08-06T06:29:28;21.90;60.60
16402;DHT22;8310;44.626;11.176;2023-08-06T06:31:56;22.00;60.70
16402;DHT22;8310;44.626;11.176;2023-08-06T06:34:23;22.10;60.80
16402;DHT22;8310;44.626;11.176;2023-08-06T06:36:51;22.20;60.90
16402;DHT22;8310;44.626;11.176;2023-08-06T06:39:18;22.30;61.00
16402;DHT22;8310;44.626;11.176;2023-08-06T06:41:46;22.40;61.20
16402;DHT22;8310;44.626;11.176;2023-08-06T06:44:13;22.60;61.20
16402;DHT22;8310;44.626;11.176;2023-08-06T06:46:40;22.70;61.40
16402;DHT22;8310;44.626;11.176;2023-08-06T06:49:09;22.80;61.40
16402;DHT22;8310;44.626;11.176;2023-08-06T06:51:37;22.90;61.40
16402;DHT22;8310;44.626;11.176;2023-08-06T06:54:04;23.10;61.60
16402;DHT22;8310;44.626;11.176;2023-08-06T06:56:34;23.20;61.60
16402;DHT22;8310;44.626;11.176;2023-08-06T06:59:02;23.40;61.60
16402;DHT22;8310;44.626;11.176;2023-08-06T07:01:29;23.50;61.70
16402;DHT22;8310;44.626;11.176;2023-08-06T07:03:56;23.60;61.60
16402;DHT22;8310;44.626;11.176;2023-08-06T07:06:26;23.80;61.50
16402;DHT22;8310;44.626;11.176;2023-08-06T07:08:54;23.90;61.40
16402;DHT22;8310;44.626;11.176;2023-08-06T07:11:21;23.90;61.00
16402;DHT22;8310;44.626;11.176;2023-08-06T07:13:49;23.90;60.60
16402;DHT22;8310;44.626;11.176;2023-08-06T07:16:16;23.90;60.60
16402;DHT22;8310;44.626;11.176;2023-08-06T07:18:43;24.00;60.90
16402;DHT22;8310;44.626;11.176;2023-08-06T07:21:11;24.10;62.00
16402;DHT22;8310;44.626;11.176;2023-08-06T07:23:40;24.20;61.40
16402;DHT22;8310;44.626;11.176;2023-08-06T07:26:07;24.40;61.60
16402;DHT22;8310;44.626;11.176;2023-08-06T07:28:35;24.50;61.50
16402;DHT22;8310;44.626;11.176;2023-08-06T07:31:02;24.60;61.20
16402;DHT22;8310;44.626;11.176;2023-08-06T07:33:29;24.70;61.00
16402;DHT22;8310;44.626;11.176;2023-08-06T07:35:56;24.70;60.80
16402;DHT22;8310;44.626;11.176;2023-08-06T07:38:23;24.80;60.80
16402;DHT22;8310;44.626;11.176;2023-08-06T07:40:53;24.80;60.80
16402;DHT22;8310;44.626;11.176;2023-08-06T07:43:20;24.80;61.10
16402;DHT22;8310;44.626;11.176;2023-08-06T07:45:48;25.00;61.50
16402;DHT22;8310;44.626;11.176;2023-08-06T07:48:15;25.20;61.80
16402;DHT22;8310;44.626;11.176;2023-08-06T07:50:43;25.30;61.80
16402;DHT22;8310;44.626;11.176;2023-08-06T07:53:15;25.50;62.00
16402;DHT22;8310;44.626;11.176;2023-08-06T07:55:42;25.60;61.60
16402;DHT22;8310;44.626;11.176;2023-08-06T07:58:11;25.70;61.40
16402;DHT22;8310;44.626;11.176;2023-08-06T08:00:38;25.80;61.30
16402;DHT22;8310;44.626;11.176;2023-08-06T08:03:07;25.80;61.20
16402;DHT22;8310;44.626;11.176;2023-08-06T08:05:35;25.90;61.20
16402;DHT22;8310;44.626;11.176;2023-08-06T08:08:05;25.90;61.30
16402;DHT22;8310;44.626;11.176;2023-08-06T08:10:33;26.00;61.40
16402;DHT22;8310;44.626;11.176;2023-08-06T08:13:01;26.10;61.10
16402;DHT22;8310;44.626;11.176;2023-08-06T08:15:30;26.10;60.80
16402;DHT22;8310;44.626;11.176;2023-08-06T08:17:58;26.10;60.80
16402;DHT22;8310;44.626;11.176;2023-08-06T08:20:26;26.10;60.70
16402;DHT22;8310;44.626;11.176;2023-08-06T08:22:57;26.10;60.60
16402;DHT22;8310;44.626;11.176;2023-08-06T08:25:27;26.00;60.40
16402;DHT22;8310;44.626;11.176;2023-08-06T08:27:55;26.00;60.60
16402;DHT22;8310;44.626;11.176;2023-08-06T08:30:22;26.10;61.00
16402;DHT22;8310;44.626;11.176;2023-08-06T08:32:51;26.20;61.30
16402;DHT22;8310;44.626;11.176;2023-08-06T08:35:19;26.30;61.40
16402;DHT22;8310;44.626;11.176;2023-08-06T08:37:46;26.40;61.40
16402;DHT22;8310;44.626;11.176;2023-08-06T08:40:14;26.50;61.50
16402;DHT22;8310;44.626;11.176;2023-08-06T08:42:42;26.70;61.50
16402;DHT22;8310;44.626;11.176;2023-08-06T08:45:11;26.80;61.50
16402;DHT22;8310;44.626;11.176;2023-08-06T08:47:39;27.00;61.50
16402;DHT22;8310;44.626;11.176;2023-08-06T08:50:09;27.10;61.50
16402;DHT22;8310;44.626;11.176;2023-08-06T08:52:38;27.20;61.50
16402;DHT22;8310;44.626;11.176;2023-08-06T08:55:05;27.30;61.40
16402;DHT22;8310;44.626;11.176;2023-08-06T08:57:34;27.30;61.50
16402;DHT22;8310;44.626;11.176;2023-08-06T09:00:01;27.40;61.50
16402;DHT22;8310;44.626;11.176;2023-08-06T09:02:28;27.60;61.60
16402;DHT22;8310;44.626;11.176;2023-08-06T09:04:56;27.70;61.60
16402;DHT22;8310;44.626;11.176;2023-08-06T09:07:26;27.70;61.60
16402;DHT22;8310;44.626;11.176;2023-08-06T09:09:53;27.80;61.70
16402;DHT22;8310;44.626;11.176;2023-08-06T09:12:22;27.90;61.70
16402;DHT22;8310;44.626;11.176;2023-08-06T09:14:49;28.10;61.80
16402;DHT22;8310;44.626;11.176;2023-08-06T09:17:16;28.20;61.90
16402;DHT22;8310;44.626;11.176;2023-08-06T09:19:45;28.30;61.70
16402;DHT22;8310;44.626;11.176;2023-08-06T09:22:15;28.40;61.80
16402;DHT22;8310;44.626;11.176;2023-08-06T09:24:44;28.50;61.80
16402;DHT22;8310;44.626;11.176;2023-08-06T09:27:12;28.60;61.80
16402;DHT22;8310;44.626;11.176;2023-08-06T09:29:40;28.70;62.40
16402;DHT22;8310;44.626;11.176;2023-08-06T09:32:08;28.70;61.50
16402;DHT22;8310;44.626;11.176;2023-08-06T09:34:35;28.80;61.50
16402;DHT22;8310;44.626;11.176;2023-08-06T09:37:05;28.90;61.60
16402;DHT22;8310;44.626;11.176;2023-08-06T09:39:32;29.00;61.50
16402;DHT22;8310;44.626;11.176;2023-08-06T09:42:02;29.00;61.50
16402;DHT22;8310;44.626;11.176;2023-08-06T09:44:30;29.10;61.50
16402;DHT22;8310;44.626;11.176;2023-08-06T09:46:59;29.10;61.40
16402;DHT22;8310;44.626;11.176;2023-08-06T09:49:26;29.20;61.30
16402;DHT22;8310;44.626;11.176;2023-08-06T09:51:54;29.20;61.00
16402;DHT22;8310;44.626;11.176;2023-08-06T09:54:23;29.20;61.00
16402;DHT22;8310;44.626;11.176;2023-08-06T09:56:52;29.30;61.20
16402;DHT22;8310;44.626;11.176;2023-08-06T09:59:21;29.30;61.30
16402;DHT22;8310;44.626;11.176;2023-08-06T10:01:49;29.40;61.10
16402;DHT22;8310;44.626;11.176;2023-08-06T10:04:16;29.40;60.90
16402;DHT22;8310;44.626;11.176;2023-08-06T10:06:46;29.40;61.10
16402;DHT22;8310;44.626;11.176;2023-08-06T10:09:13;29.50;61.20
16402;DHT22;8310;44.626;11.176;2023-08-06T10:11:41;29.60;61.30
16402;DHT22;8310;44.626;11.176;2023-08-06T10:14:10;29.70;61.40
16402;DHT22;8310;44.626;11.176;2023-08-06T10:16:41;29.70;61.30
16402;DHT22;8310;44.626;11.176;2023-08-06T10:19:09;29.80;60.80
16402;DHT22;8310;44.626;11.176;2023-08-06T10:21:37;29.80;60.70
16402;DHT22;8310;44.626;11.176;2023-08-06T10:24:06;29.80;61.80
16402;DHT22;8310;44.626;11.176;2023-08-06T10:26:35;29.90;60.90
16402;DHT22;8310;44.626;11.176;2023-08-06T10:31:55;30.00;60.60
16402;DHT22;8310;44.626;11.176;2023-08-06T10:34:22;30.00;61.30
16402;DHT22;8310;44.626;11.176;2023-08-06T10:36:49;30.00;60.40
16402;DHT22;8310;44.626;11.176;2023-08-06T10:39:16;30.00;60.40
16402;DHT22;8310;44.626;11.176;2023-08-06T10:41:43;30.10;60.50
16402;DHT22;8310;44.626;11.176;2023-08-06T10:44:11;30.10;60.40
16402;DHT22;8310;44.626;11.176;2023-08-06T10:46:38;30.10;60.30
16402;DHT22;8310;44.626;11.176;2023-08-06T10:49:07;30.20;60.50
16402;DHT22;8310;44.626;11.176;2023-08-06T10:51:34;30.20;60.50
16402;DHT22;8310;44.626;11.176;2023-08-06T10:54:01;30.30;60.60
16402;DHT22;8310;44.626;11.176;2023-08-06T10:56:29;30.40;60.60
16402;DHT22;8310;44.626;11.176;2023-08-06T10:58:57;30.50;60.20
16402;DHT22;8310;44.626;11.176;2023-08-06T11:01:24;30.60;60.40
16402;DHT22;8310;44.626;11.176;2023-08-06T11:03:55;30.60;60.50
16402;DHT22;8310;44.626;11.176;2023-08-06T11:06:24;30.70;60.50
16402;DHT22;8310;44.626;11.176;2023-08-06T11:08:53;30.80;60.20
16402;DHT22;8310;44.626;11.176;2023-08-06T11:11:21;30.80;60.20
16402;DHT22;8310;44.626;11.176;2023-08-06T11:13:49;30.90;60.30
16402;DHT22;8310;44.626;11.176;2023-08-06T11:16:17;31.00;60.30
16402;DHT22;8310;44.626;11.176;2023-08-06T11:18:45;31.10;60.10
16402;DHT22;8310;44.626;11.176;2023-08-06T11:21:12;31.10;60.10
16402;DHT22;8310;44.626;11.176;2023-08-06T11:23:41;31.10;59.80
16402;DHT22;8310;44.626;11.176;2023-08-06T11:26:09;31.10;59.80
16402;DHT22;8310;44.626;11.176;2023-08-06T11:28:36;31.20;59.90
16402;DHT22;8310;44.626;11.176;2023-08-06T11:31:04;31.20;59.80
16402;DHT22;8310;44.626;11.176;2023-08-06T11:33:31;31.20;59.70
16402;DHT22;8310;44.626;11.176;2023-08-06T11:35:59;31.20;59.60
16402;DHT22;8310;44.626;11.176;2023-08-06T11:38:27;31.30;59.70
16402;DHT22;8310;44.626;11.176;2023-08-06T11:40:55;31.30;59.40
16402;DHT22;8310;44.626;11.176;2023-08-06T11:43:22;31.30;59.60
16402;DHT22;8310;44.626;11.176;2023-08-06T11:45:50;31.40;59.60
16402;DHT22;8310;44.626;11.176;2023-08-06T11:48:19;31.40;59.60
16402;DHT22;8310;44.626;11.176;2023-08-06T11:50:47;31.40;59.60
16402;DHT22;8310;44.626;11.176;2023-08-06T11:53:15;31.50;59.60
16402;DHT22;8310;44.626;11.176;2023-08-06T11:55:42;31.50;59.50
16402;DHT22;8310;44.626;11.176;2023-08-06T11:58:11;31.60;59.60
16402;DHT22;8310;44.626;11.176;2023-08-06T12:00:40;31.60;59.50
16402;DHT22;8310;44.626;11.176;2023-08-06T12:03:07;31.70;59.60
16402;DHT22;8310;44.626;11.176;2023-08-06T12:05:34;31.70;59.30
16402;DHT22;8310;44.626;11.176;2023-08-06T12:08:03;31.80;59.40
16402;DHT22;8310;44.626;11.176;2023-08-06T12:10:31;31.80;59.40
16402;DHT22;8310;44.626;11.176;2023-08-06T12:12:59;31.90;59.40
16402;DHT22;8310;44.626;11.176;2023-08-06T12:15:27;31.90;59.10
16402;DHT22;8310;44.626;11.176;2023-08-06T12:17:54;31.90;59.10
16402;DHT22;8310;44.626;11.176;2023-08-06T12:20:27;31.90;59.10
16402;DHT22;8310;44.626;11.176;2023-08-06T12:22:54;31.90;59.20
16402;DHT22;8310;44.626;11.176;2023-08-06T12:25:22;32.00;59.80
16402;DHT22;8310;44.626;11.176;2023-08-06T12:27:49;32.00;59.00
16402;DHT22;8310;44.626;11.176;2023-08-06T12:30:16;32.00;59.00
16402;DHT22;8310;44.626;11.176;2023-08-06T12:32:45;32.10;59.00
16402;DHT22;8310;44.626;11.176;2023-08-06T12:35:13;32.10;58.90
16402;DHT22;8310;44.626;11.176;2023-08-06T12:37:39;32.10;59.00
16402;DHT22;8310;44.626;11.176;2023-08-06T12:40:09;32.20;59.70
16402;DHT22;8310;44.626;11.176;2023-08-06T12:42:36;32.20;59.00
16402;DHT22;8310;44.626;11.176;2023-08-06T12:45:04;32.30;59.00
16402;DHT22;8310;44.626;11.176;2023-08-06T12:47:31;32.30;58.80
16402;DHT22;8310;44.626;11.176;2023-08-06T12:50:00;32.40;58.80
16402;DHT22;8310;44.626;11.176;2023-08-06T12:52:27;32.40;58.80
16402;DHT22;8310;44.626;11.176;2023-08-06T12:54:54;32.40;58.50
16402;DHT22;8310;44.626;11.176;2023-08-06T12:57:22;32.40;58.30
16402;DHT22;8310;44.626;11.176;2023-08-06T12:59:49;32.40;58.40
16402;DHT22;8310;44.626;11.176;2023-08-06T13:02:16;32.40;58.40
16402;DHT22;8310;44.626;11.176;2023-08-06T13:04:45;32.40;58.30
16402;DHT22;8310;44.626;11.176;2023-08-06T13:07:14;32.40;58.10
16402;DHT22;8310;44.626;11.176;2023-08-06T13:09:42;32.40;58.00
16402;DHT22;8310;44.626;11.176;2023-08-06T13:12:09;32.40;58.00
16402;DHT22;8310;44.626;11.176;2023-08-06T13:14:36;32.40;58.10
16402;DHT22;8310;44.626;11.176;2023-08-06T13:17:04;32.40;58.10
16402;DHT22;8310;44.626;11.176;2023-08-06T13:19:33;32.40;58.10
16402;DHT22;8310;44.626;11.176;2023-08-06T13:22:01;32.40;58.10
16402;DHT22;8310;44.626;11.176;2023-08-06T13:24:33;32.50;58.00
16402;DHT22;8310;44.626;11.176;2023-08-06T13:27:01;32.50;57.50
16402;DHT22;8310;44.626;11.176;2023-08-06T13:29:28;32.50;57.80
16402;DHT22;8310;44.626;11.176;2023-08-06T13:31:55;32.50;57.60
16402;DHT22;8310;44.626;11.176;2023-08-06T13:34:22;32.40;57.40
16402;DHT22;8310;44.626;11.176;2023-08-06T13:36:49;32.40;57.40
16402;DHT22;8310;44.626;11.176;2023-08-06T13:39:17;32.50;56.70
16402;DHT22;8310;44.626;11.176;2023-08-06T13:41:46;32.40;57.20
16402;DHT22;8310;44.626;11.176;2023-08-06T13:44:13;32.40;57.30
16402;DHT22;8310;44.626;11.176;2023-08-06T13:46:41;32.50;57.40
16402;DHT22;8310;44.626;11.176;2023-08-06T13:49:08;32.50;57.40
16402;DHT22;8310;44.626;11.176;2023-08-06T13:51:36;32.50;57.50
16402;DHT22;8310;44.626;11.176;2023-08-06T13:54:03;32.60;57.60
16402;DHT22;8310;44.626;11.176;2023-08-06T13:56:31;32.70;57.50
16402;DHT22;8310;44.626;11.176;2023-08-06T13:59:00;32.70;57.50
16402;DHT22;8310;44.626;11.176;2023-08-06T14:01:28;32.70;57.30
16402;DHT22;8310;44.626;11.176;2023-08-06T14:03:55;32.70;57.10
16402;DHT22;8310;44.626;11.176;2023-08-06T14:06:23;32.70;57.10
16402;DHT22;8310;44.626;11.176;2023-08-06T14:08:50;32.70;57.20
16402;DHT22;8310;44.626;11.176;2023-08-06T14:11:17;32.70;57.20
16402;DHT22;8310;44.626;11.176;2023-08-06T14:13:44;32.70;57.20
16402;DHT22;8310;44.626;11.176;2023-08-06T14:16:13;32.80;57.20
16402;DHT22;8310;44.626;11.176;2023-08-06T14:18:40;32.80;57.20
16402;DHT22;8310;44.626;11.176;2023-08-06T14:23:43;32.90;57.00
16402;DHT22;8310;44.626;11.176;2023-08-06T14:26:10;32.90;57.00
16402;DHT22;8310;44.626;11.176;2023-08-06T14:28:40;32.90;56.90
16402;DHT22;8310;44.626;11.176;2023-08-06T14:31:07;32.90;56.90
16402;DHT22;8310;44.626;11.176;2023-08-06T14:33:36;32.90;56.80
16402;DHT22;8310;44.626;11.176;2023-08-06T14:36:03;33.00;56.80
16402;DHT22;8310;44.626;11.176;2023-08-06T14:38:30;33.00;56.70
16402;DHT22;8310;44.626;11.176;2023-08-06T14:40:58;33.00;56.80
16402;DHT22;8310;44.626;11.176;2023-08-06T14:43:25;33.00;56.80
16402;DHT22;8310;44.626;11.176;2023-08-06T14:45:51;33.10;56.70
16402;DHT22;8310;44.626;11.176;2023-08-06T14:48:18;33.00;56.50
16402;DHT22;8310;44.626;11.176;2023-08-06T14:50:47;33.00;56.50
16402;DHT22;8310;44.626;11.176;2023-08-06T14:53:15;33.00;56.40
16402;DHT22;8310;44.626;11.176;2023-08-06T14:55:42;32.90;56.30
16402;DHT22;8310;44.626;11.176;2023-08-06T14:58:09;33.00;56.30
16402;DHT22;8310;44.626;11.176;2023-08-06T15:00:36;33.00;56.40
16402;DHT22;8310;44.626;11.176;2023-08-06T15:03:03;32.90;56.30
16402;DHT22;8310;44.626;11.176;2023-08-06T15:05:31;32.90;56.30
16402;DHT22;8310;44.626;11.176;2023-08-06T15:08:00;33.00;56.30
16402;DHT22;8310;44.626;11.176;2023-08-06T15:10:27;33.00;56.20
16402;DHT22;8310;44.626;11.176;2023-08-06T15:12:54;33.00;56.10
16402;DHT22;8310;44.626;11.176;2023-08-06T15:15:21;32.90;56.00
16402;DHT22;8310;44.626;11.176;2023-08-06T15:17:49;32.90;55.90
16402;DHT22;8310;44.626;11.176;2023-08-06T15:20:16;32.90;55.90
16402;DHT22;8310;44.626;11.176;2023-08-06T15:22:43;32.90;55.90
16402;DHT22;8310;44.626;11.176;2023-08-06T15:25:12;32.90;55.90
16402;DHT22;8310;44.626;11.176;2023-08-06T15:27:40;32.80;55.70
16402;DHT22;8310;44.626;11.176;2023-08-06T15:30:07;32.90;55.80
16402;DHT22;8310;44.626;11.176;2023-08-06T15:32:34;32.80;55.70
16402;DHT22;8310;44.626;11.176;2023-08-06T15:35:01;32.80;55.60
16402;DHT22;8310;44.626;11.176;2023-08-06T15:37:29;32.80;55.50
16402;DHT22;8310;44.626;11.176;2023-08-06T15:39:56;32.70;55.40